Time;durP1;ratioP1;P1;durP2;ratioP2;P2;SDS_P1;SDS_P2;PMS_P1;PMS_P2;Temp;Humidity;BMP_temperature;BMP_pressure;BME280_temperature;BME280_humidity;BME280_pressure;Samples;Min_cycle;Max_cycle;Signal;HPM_P1;HPM_P2
2020/12/18 00:03:08;;;;;;;17.57;7.00;;;;;6.70;101648.00;;;;10367291;28;20563;-80
2020/12/18 00:08:10;;;;;;;10.90;7.03;;;;;6.70;101659.00;;;;10366804;28;20234;-80
2020/12/18 00:13:11;;;;;;;15.67;7.93;;;;;6.70;101649.00;;;;10344911;28;20292;-80
2020/12/18 00:18:12;;;;;;;11.50;6.37;;;;;6.70;101650.00;;;;10365770;28;20854;-80
2020/12/18 00:23:28;;;;;;;15.83;7.97;;;;;6.60;101657.00;;;;10349373;28;20624;-80
2020/12/18 00:28:29;;;;;;;13.30;5.87;;;;;6.60;101649.00;;;;10350675;28;20227;-80
2020/12/18 00:33:31;;;;;;;17.87;7.50;;;;;6.60;101647.00;;;;10349463;28;20242;-80
2020/12/18 00:38:33;;;;;;;14.83;6.00;;;;;6.60;101637.00;;;;10348502;28;20221;-81
2020/12/18 00:43:34;;;;;;;11.70;6.47;;;;;6.60;101643.00;;;;10349316;28;20375;-80
2020/12/18 00:48:37;;;;;;;10.10;6.00;;;;;6.50;101637.00;;;;10349095;28;20200;-80
2020/12/18 00:53:46;;;;;;;18.53;7.20;;;;;6.60;101637.00;;;;10349725;28;20847;-79
2020/12/18 00:58:48;;;;;;;13.63;7.43;;;;;6.60;101630.00;;;;10349225;28;20267;-80
2020/12/18 01:03:54;;;;;;;18.10;7.20;;;;;6.50;101630.00;;;;10349211;28;20212;-80
2020/12/18 01:08:55;;;;;;;13.23;6.70;;;;;6.60;101629.00;;;;10365612;28;20282;-80
2020/12/18 01:14:01;;;;;;;16.77;6.63;;;;;6.60;101626.00;;;;10336837;28;20235;-80
2020/12/18 01:19:05;;;;;;;16.37;7.20;;;;;6.60;101626.00;;;;10343865;28;20192;-80
2020/12/18 01:24:12;;;;;;;13.17;6.37;;;;;6.60;101625.00;;;;10349571;28;20567;-80
2020/12/18 01:29:17;;;;;;;17.87;6.70;;;;;6.50;101627.00;;;;10365704;28;20195;-80
2020/12/18 01:34:21;;;;;;;14.17;6.70;;;;;6.50;101625.00;;;;10348869;28;20246;-79
2020/12/18 01:39:23;;;;;;;13.37;6.40;;;;;6.60;101612.00;;;;10348025;28;20204;-79
2020/12/18 01:44:25;;;;;;;11.67;5.83;;;;;6.60;101602.00;;;;10354483;28;20215;-79
2020/12/18 01:49:30;;;;;;;13.47;5.07;;;;;6.60;101600.00;;;;10346164;28;20718;-80
2020/12/18 01:54:36;;;;;;;15.03;4.87;;;;;6.70;101597.00;;;;10349004;28;20278;-80
2020/12/18 01:59:37;;;;;;;15.30;5.37;;;;;6.70;101603.00;;;;10347472;28;20192;-80
2020/12/18 02:04:47;;;;;;;8.10;4.63;;;;;6.70;101621.00;;;;10364127;28;20232;-79
2020/12/18 02:09:52;;;;;;;13.53;4.83;;;;;6.70;101614.00;;;;10347356;28;20195;-79
2020/12/18 02:14:56;;;;;;;9.03;4.13;;;;;6.70;101604.00;;;;10346700;28;20785;-79
2020/12/18 02:20:04;;;;;;;14.30;4.57;;;;;6.70;101602.00;;;;10330912;28;20293;-79
2020/12/18 02:25:09;;;;;;;13.47;4.67;;;;;6.70;101598.00;;;;10346378;28;20261;-79
2020/12/18 02:30:14;;;;;;;10.23;4.63;;;;;6.70;101599.00;;;;10345708;28;20287;-79
2020/12/18 02:35:44;;;;;;;17.53;4.23;;;;;6.60;101599.00;;;;10349702;28;20214;-80
2020/12/18 02:40:46;;;;;;;10.77;4.20;;;;;6.50;101589.00;;;;10304836;28;20204;-79
2020/12/18 02:46:06;;;;;;;14.17;4.40;;;;;6.50;101584.00;;;;10327096;28;20310;-80
2020/12/18 02:51:12;;;;;;;11.83;3.80;;;;;6.50;101583.00;;;;10346144;28;20609;-79
2020/12/18 02:56:26;;;;;;;10.17;3.53;;;;;6.50;101574.00;;;;10347029;28;20184;-79
2020/12/18 03:01:46;;;;;;;9.97;3.90;;;;;6.40;101575.00;;;;10355838;28;20195;-80
2020/12/18 03:06:48;;;;;;;12.60;4.63;;;;;6.40;101579.00;;;;10369474;28;20212;-79
2020/12/18 03:11:50;;;;;;;10.40;3.80;;;;;6.40;101569.00;;;;10352948;28;20223;-80
2020/12/18 03:16:51;;;;;;;14.60;4.23;;;;;6.50;101574.00;;;;10346315;28;20262;-80
2020/12/18 03:22:00;;;;;;;11.00;4.27;;;;;6.40;101578.00;;;;10368482;28;20192;-79
2020/12/18 03:27:16;;;;;;;11.33;4.37;;;;;6.40;101587.00;;;;10371780;28;20222;-79
2020/12/18 03:32:27;;;;;;;13.73;5.37;;;;;6.50;101583.00;;;;10369444;28;20204;-79
2020/12/18 03:37:39;;;;;;;14.27;4.03;;;;;6.50;101582.00;;;;10352496;28;20678;-79
2020/12/18 03:42:43;;;;;;;18.47;4.73;;;;;6.40;101586.00;;;;10353694;28;20238;-79
2020/12/18 03:47:45;;;;;;;15.27;5.57;;;;;6.40;101588.00;;;;10352722;28;20212;-79
2020/12/18 03:52:55;;;;;;;13.70;4.70;;;;;6.50;101574.00;;;;10353873;28;20187;-79
2020/12/18 03:57:57;;;;;;;15.10;4.87;;;;;6.60;101566.00;;;;10369165;28;20275;-80
2020/12/18 04:03:17;;;;;;;14.40;4.70;;;;;6.60;101556.00;;;;10370945;28;20245;-80
2020/12/18 04:08:20;;;;;;;13.00;4.73;;;;;6.70;101563.00;;;;10352642;28;20293;-80
2020/12/18 04:13:50;;;;;;;11.90;4.13;;;;;6.80;101566.00;;;;10367054;28;20199;-79
2020/12/18 04:18:54;;;;;;;15.37;3.80;;;;;6.90;101561.00;;;;10367914;28;20196;-80
2020/12/18 04:24:00;;;;;;;12.30;4.40;;;;;6.90;101557.00;;;;10350914;28;20200;-79
2020/12/18 04:29:05;;;;;;;14.57;4.03;;;;;6.90;101550.00;;;;10367381;28;20196;-79
2020/12/18 04:34:09;;;;;;;9.10;3.67;;;;;6.90;101557.00;;;;10349598;28;20196;-79
2020/12/18 04:39:28;;;;;;;10.53;3.83;;;;;6.90;101539.00;;;;10366547;28;20199;-79
2020/12/18 04:44:31;;;;;;;21.40;4.70;;;;;6.80;101540.00;;;;10334739;28;20272;-79
2020/12/18 04:49:40;;;;;;;14.70;3.83;;;;;6.80;101541.00;;;;10349976;28;20200;-79
2020/12/18 04:54:52;;;;;;;17.07;4.00;;;;;6.90;101544.00;;;;10350797;28;20191;-79
2020/12/18 05:00:28;;;;;;;12.97;4.13;;;;;6.80;101538.00;;;;10343354;28;20202;-79
2020/12/18 05:05:50;;;;;;;16.17;4.07;;;;;6.80;101535.00;;;;10346563;28;20277;-79
2020/12/18 05:10:55;;;;;;;10.40;4.00;;;;;6.80;101521.00;;;;10352012;28;20598;-80
2020/12/18 05:16:03;;;;;;;9.17;3.20;;;;;6.80;101515.00;;;;10352640;28;20249;-79
2020/12/18 05:21:11;;;;;;;9.20;3.87;;;;;6.80;101521.00;;;;10367147;28;20197;-79
2020/12/18 05:26:33;;;;;;;10.50;4.20;;;;;6.80;101525.00;;;;10352406;28;20215;-79
2020/12/18 05:31:37;;;;;;;14.57;4.60;;;;;6.80;101532.00;;;;10367285;28;20199;-80
2020/12/18 05:36:52;;;;;;;10.50;4.60;;;;;7.00;101522.00;;;;10367761;28;20210;-79
2020/12/18 05:42:12;;;;;;;12.67;4.97;;;;;7.10;101520.00;;;;10351673;28;20713;-79
2020/12/18 05:47:16;;;;;;;9.53;4.33;;;;;7.20;101516.00;;;;10348572;28;20242;-79
2020/12/18 05:52:20;;;;;;;10.67;4.17;;;;;7.20;101528.00;;;;10347972;28;20197;-79
2020/12/18 05:57:48;;;;;;;12.43;3.83;;;;;7.20;101525.00;;;;10351686;28;20202;-79
2020/12/18 06:03:02;;;;;;;12.57;4.00;;;;;7.40;101524.00;;;;10332200;28;20199;-79
2020/12/18 06:08:31;;;;;;;11.97;4.83;;;;;7.50;101526.00;;;;10348619;28;20590;-79
2020/12/18 06:13:37;;;;;;;11.70;4.00;;;;;7.70;101521.00;;;;10311209;28;20220;-79
2020/12/18 06:19:00;;;;;;;11.80;4.30;;;;;7.90;101525.00;;;;10343276;28;20280;-79
2020/12/18 06:24:08;;;;;;;13.33;3.77;;;;;8.00;101525.00;;;;10347648;28;20209;-79
2020/12/18 06:29:28;;;;;;;12.40;4.07;;;;;8.10;101508.00;;;;10365352;28;20203;-80
2020/12/18 06:34:54;;;;;;;10.17;4.60;;;;;8.30;101521.00;;;;10320719;28;20250;-79
2020/12/18 06:40:02;;;;;;;10.53;4.17;;;;;8.30;101501.00;;;;10361706;28;20200;-79
2020/12/18 06:45:36;;;;;;;12.90;4.53;;;;;8.40;101499.00;;;;10358695;28;20212;-79
2020/12/18 06:50:58;;;;;;;9.43;3.80;;;;;8.40;101494.00;;;;10362840;28;20241;-79
2020/12/18 06:56:28;;;;;;;8.37;3.90;;;;;8.50;101496.00;;;;10365185;28;20660;-79
2020/12/18 07:01:48;;;;;;;10.50;3.90;;;;;8.50;101507.00;;;;10378864;28;20215;-80
2020/12/18 07:06:49;;;;;;;9.27;3.67;;;;;8.60;101508.00;;;;10345967;28;20218;-79
2020/12/18 07:11:51;;;;;;;17.10;5.17;;;;;8.60;101504.00;;;;10361829;28;20195;-80
2020/12/18 07:16:56;;;;;;;10.17;4.07;;;;;8.60;101507.00;;;;10339858;28;20196;-79
2020/12/18 07:22:01;;;;;;;9.30;3.53;;;;;8.70;101500.00;;;;10346170;28;20709;-80
2020/12/18 07:27:02;;;;;;;6.03;3.50;;;;;8.60;101487.00;;;;10347385;28;20215;-80
2020/12/18 07:32:04;;;;;;;9.83;3.40;;;;;8.70;101485.00;;;;10363796;28;20234;-79
2020/12/18 07:37:12;;;;;;;9.07;3.30;;;;;8.70;101497.00;;;;10345265;28;20206;-79
2020/12/18 07:42:15;;;;;;;10.97;3.33;;;;;8.70;101513.00;;;;10331532;28;20215;-80
2020/12/18 07:47:16;;;;;;;9.00;4.00;;;;;8.70;101522.00;;;;10341522;28;20258;-80
2020/12/18 07:52:18;;;;;;;11.03;3.40;;;;;8.60;101521.00;;;;10351730;28;20698;-79
2020/12/18 07:57:19;;;;;;;8.63;3.13;;;;;8.40;101526.00;;;;10335943;28;20195;-80
2020/12/18 08:02:24;;;;;;;12.63;3.00;;;;;8.30;101518.00;;;;10352322;28;20183;-79
2020/12/18 08:07:28;;;;;;;13.67;3.37;;;;;8.20;101517.00;;;;10352141;28;20263;-79
2020/12/18 08:12:30;;;;;;;7.00;3.20;;;;;8.10;101524.00;;;;10368492;28;20290;-79
2020/12/18 08:17:31;;;;;;;10.30;3.43;;;;;8.10;101534.00;;;;10352571;28;20196;-79
2020/12/18 08:22:50;;;;;;;12.00;3.30;;;;;8.20;101523.00;;;;10350498;28;20219;-79
2020/12/18 08:27:53;;;;;;;10.63;3.60;;;;;8.30;101513.00;;;;10357394;28;20203;-79
2020/12/18 08:32:56;;;;;;;11.13;3.10;;;;;8.40;101527.00;;;;10363299;28;20200;-78
2020/12/18 08:38:10;;;;;;;11.37;3.67;;;;;8.50;101526.00;;;;10306486;28;20279;-78
2020/12/18 08:43:12;;;;;;;13.30;3.83;;;;;8.70;101535.00;;;;10358195;28;20306;-79
2020/12/18 08:48:26;;;;;;;9.63;3.57;;;;;8.80;101529.00;;;;10383435;28;20218;-79
2020/12/18 08:53:35;;;;;;;5.77;2.67;;;;;9.00;101523.00;;;;10346647;28;20234;-80
2020/12/18 08:58:37;;;;;;;7.33;2.83;;;;;9.20;101527.00;;;;10373907;28;20670;-79
2020/12/18 09:03:45;;;;;;;8.00;2.37;;;;;9.60;101525.00;;;;10352331;28;20249;-80
2020/12/18 09:08:46;;;;;;;7.87;2.77;;;;;10.00;101531.00;;;;10300040;28;21174;-79
2020/12/18 09:13:48;;;;;;;7.23;2.50;;;;;10.20;101531.00;;;;10271800;28;20200;-79
2020/12/18 09:18:52;;;;;;;8.60;3.00;;;;;10.40;101521.00;;;;10278837;28;20234;-80
2020/12/18 09:23:53;;;;;;;5.40;2.37;;;;;10.50;101519.00;;;;10306060;28;20560;-80
2020/12/18 09:29:01;;;;;;;10.87;2.73;;;;;10.70;101518.00;;;;10279924;28;20212;-79
2020/12/18 09:34:23;;;;;;;6.07;2.40;;;;;10.80;101513.00;;;;10324751;28;20192;-81
2020/12/18 09:39:26;;;;;;;6.73;2.40;;;;;11.00;101527.00;;;;10360460;28;20203;-80
2020/12/18 09:44:27;;;;;;;10.63;2.83;;;;;11.30;101536.00;;;;10348175;28;20351;-79
2020/12/18 09:49:28;;;;;;;7.80;2.10;;;;;11.40;101537.00;;;;10347844;28;20202;-79
2020/12/18 09:54:30;;;;;;;4.47;2.33;;;;;11.70;101540.00;;;;10347860;28;20854;-78
2020/12/18 09:59:31;;;;;;;6.37;2.10;;;;;11.80;101541.00;;;;10350085;28;20195;-79
2020/12/18 10:04:32;;;;;;;5.30;1.93;;;;;12.00;101532.00;;;;10341417;28;20218;-78
2020/12/18 10:09:34;;;;;;;8.60;1.97;;;;;12.10;101534.00;;;;10340704;28;20203;-79
2020/12/18 10:14:35;;;;;;;6.37;2.60;;;;;12.10;101540.00;;;;10325335;28;20196;-80
2020/12/18 10:19:37;;;;;;;8.73;2.10;;;;;12.30;101528.00;;;;10359079;28;20199;-79
2020/12/18 10:24:38;;;;;;;4.70;2.03;;;;;12.30;101494.00;;;;10343220;28;20211;-78
2020/12/18 10:29:40;;;;;;;4.07;1.43;;;;;12.40;101493.00;;;;10322222;28;20207;-79
2020/12/18 10:34:41;;;;;;;3.20;1.80;;;;;11.90;101482.00;;;;10339475;28;20197;-79
2020/12/18 10:39:42;;;;;;;6.10;1.83;;;;;11.90;101468.00;;;;10352246;28;20540;-80
2020/12/18 10:44:44;;;;;;;4.27;1.40;;;;;12.50;101483.00;;;;10331545;28;20238;-79
2020/12/18 10:49:45;;;;;;;4.93;1.50;;;;;12.80;101480.00;;;;10331646;28;20298;-79
2020/12/18 10:54:47;;;;;;;6.27;1.70;;;;;13.00;101495.00;;;;10346548;28;20200;-78
2020/12/18 10:59:48;;;;;;;6.97;1.90;;;;;13.20;101492.00;;;;10346789;28;20202;-79
2020/12/18 11:04:50;;;;;;;4.23;1.67;;;;;13.30;101482.00;;;;10357492;28;20222;-79
2020/12/18 11:09:51;;;;;;;3.37;1.80;;;;;13.50;101484.00;;;;10347709;28;20273;-80
2020/12/18 11:14:53;;;;;;;4.63;1.60;;;;;13.50;101471.00;;;;10355312;28;20195;-78
2020/12/18 11:19:55;;;;;;;5.17;1.47;;;;;13.70;101438.00;;;;10329585;28;20744;-78
2020/12/18 11:25:00;;;;;;;2.83;2.00;;;;;13.70;101413.00;;;;10353573;28;20261;-78
2020/12/18 11:30:03;;;;;;;3.17;1.40;;;;;13.60;101404.00;;;;10290298;28;20414;-79
2020/12/18 11:35:05;;;;;;;2.27;1.50;;;;;13.60;101400.00;;;;10303922;28;20311;-79
2020/12/18 11:40:06;;;;;;;4.70;1.80;;;;;13.60;101399.00;;;;10273418;28;20318;-79
2020/12/18 11:45:08;;;;;;;2.90;1.43;;;;;13.80;101393.00;;;;10276564;28;20758;-79
2020/12/18 11:50:11;;;;;;;3.77;1.67;;;;;13.80;101378.00;;;;10281197;28;20243;-78
2020/12/18 11:55:13;;;;;;;4.13;1.30;;;;;13.80;101375.00;;;;10291621;28;20234;-78
2020/12/18 12:00:21;;;;;;;3.40;1.20;;;;;13.90;101366.00;;;;10283515;28;20295;-78
2020/12/18 12:05:24;;;;;;;2.87;1.40;;;;;14.00;101362.00;;;;10322898;28;20303;-78
2020/12/18 12:10:30;;;;;;;1.70;1.13;;;;;14.00;101349.00;;;;10284991;28;20207;-78
2020/12/18 12:15:32;;;;;;;4.17;1.50;;;;;14.00;101336.00;;;;10280850;28;20224;-79
2020/12/18 12:20:33;;;;;;;3.90;1.17;;;;;14.00;101323.00;;;;10366128;28;20184;-78
2020/12/18 12:25:34;;;;;;;2.43;1.50;;;;;14.10;101332.00;;;;10365253;28;20535;-79
2020/12/18 12:30:36;;;;;;;4.00;1.00;;;;;14.10;101315.00;;;;10366773;28;20916;-79
2020/12/18 12:35:41;;;;;;;5.37;1.10;;;;;13.90;101295.00;;;;10351729;28;20726;-79
2020/12/18 12:40:49;;;;;;;2.07;1.00;;;;;13.90;101303.00;;;;10349850;28;20207;-79
2020/12/18 12:45:50;;;;;;;3.47;1.00;;;;;13.90;101295.00;;;;10365929;28;20575;-80
2020/12/18 12:50:52;;;;;;;4.20;1.00;;;;;13.80;101288.00;;;;10349720;28;20199;-79
2020/12/18 12:55:53;;;;;;;5.40;1.17;;;;;13.90;101271.00;;;;10364516;28;20868;-79
2020/12/18 13:00:54;;;;;;;2.57;1.00;;;;;13.90;101268.00;;;;10348685;28;20246;-79
2020/12/18 13:05:58;;;;;;;1.43;0.83;;;;;14.00;101256.00;;;;10381263;28;20207;-79
2020/12/18 13:11:00;;;;;;;2.33;1.00;;;;;14.00;101256.00;;;;10333410;28;20196;-79
2020/12/18 13:16:01;;;;;;;2.37;0.90;;;;;14.00;101245.00;;;;10365053;28;20219;-79
2020/12/18 13:21:04;;;;;;;2.17;1.03;;;;;13.90;101232.00;;;;10348034;28;20693;-80
2020/12/18 13:26:07;;;;;;;7.33;1.37;;;;;13.80;101234.00;;;;10323388;28;20270;-79
2020/12/18 13:31:08;;;;;;;3.47;1.27;;;;;13.60;101223.00;;;;10308176;28;20180;-80
2020/12/18 13:36:09;;;;;;;1.87;0.77;;;;;13.40;101224.00;;;;10346636;28;20209;-79
2020/12/18 13:41:11;;;;;;;2.27;0.90;;;;;13.30;101222.00;;;;10345176;28;20200;-79
2020/12/18 13:46:12;;;;;;;2.20;0.80;;;;;13.20;101225.00;;;;10361402;28;20204;-79
2020/12/18 13:51:14;;;;;;;3.20;1.40;;;;;13.20;101231.00;;;;10357057;28;20273;-79
2020/12/18 13:56:16;;;;;;;1.83;0.80;;;;;13.10;101236.00;;;;10358813;28;20210;-79
2020/12/18 14:01:22;;;;;;;4.13;1.40;;;;;12.90;101229.00;;;;10331249;28;20192;-79
2020/12/18 14:06:23;;;;;;;2.17;0.80;;;;;12.80;101228.00;;;;10323075;28;20194;-79
2020/12/18 14:11:24;;;;;;;4.33;0.93;;;;;12.60;101243.00;;;;10362489;28;20196;-79
2020/12/18 14:16:26;;;;;;;6.37;1.10;;;;;12.50;101252.00;;;;10362376;28;20215;-79
2020/12/18 14:21:27;;;;;;;3.77;1.17;;;;;12.40;101253.00;;;;10361128;28;20206;-78
2020/12/18 14:26:29;;;;;;;2.40;0.87;;;;;12.30;101261.00;;;;10343134;28;20191;-78
2020/12/18 14:31:32;;;;;;;1.40;0.80;;;;;12.10;101261.00;;;;10359581;28;20187;-79
2020/12/18 14:36:34;;;;;;;4.13;1.03;;;;;12.00;101261.00;;;;10332048;28;20299;-78
2020/12/18 14:41:35;;;;;;;1.97;1.10;;;;;11.90;101270.00;;;;10356338;28;20192;-78
2020/12/18 14:46:39;;;;;;;4.53;1.30;;;;;11.80;101266.00;;;;10358833;28;20208;-78
2020/12/18 14:51:40;;;;;;;4.33;1.30;;;;;11.70;101273.00;;;;10303567;28;20198;-78
2020/12/18 14:56:42;;;;;;;2.73;1.20;;;;;11.60;101278.00;;;;10360244;28;20211;-78
2020/12/18 15:01:49;;;;;;;5.03;1.50;;;;;11.40;101288.00;;;;10361900;28;20199;-78
2020/12/18 15:06:51;;;;;;;4.90;1.27;;;;;11.20;101288.00;;;;10359446;28;20197;-78
2020/12/18 15:11:53;;;;;;;2.13;0.90;;;;;11.00;101277.00;;;;10361172;28;20219;-78
2020/12/18 15:16:54;;;;;;;2.27;1.00;;;;;10.90;101277.00;;;;10350420;28;20219;-78
2020/12/18 15:21:56;;;;;;;1.93;1.10;;;;;10.80;101279.00;;;;10343425;28;20201;-78
2020/12/18 15:26:57;;;;;;;2.03;1.00;;;;;10.60;101283.00;;;;10332223;28;20603;-78
2020/12/18 15:32:06;;;;;;;1.67;0.90;;;;;10.60;101278.00;;;;10350709;28;20191;-78
2020/12/18 15:37:08;;;;;;;2.90;1.13;;;;;10.50;101274.00;;;;10343444;28;20230;-78
2020/12/18 15:42:09;;;;;;;1.53;0.90;;;;;10.40;101274.00;;;;10343942;28;20244;-78
2020/12/18 15:47:12;;;;;;;2.20;1.00;;;;;10.30;101266.00;;;;10366520;28;20282;-78
2020/12/18 15:52:13;;;;;;;3.30;1.53;;;;;10.20;101266.00;;;;10342516;28;20563;-78
2020/12/18 15:57:15;;;;;;;2.77;1.27;;;;;10.00;101274.00;;;;10349825;28;20479;-79
2020/12/18 16:02:23;;;;;;;2.53;1.50;;;;;10.00;101267.00;;;;10352362;28;20287;-79
2020/12/18 16:07:24;;;;;;;5.97;2.20;;;;;9.90;101261.00;;;;10339517;28;20187;-79
2020/12/18 16:12:26;;;;;;;4.10;2.10;;;;;9.90;101254.00;;;;10382092;28;20200;-79
2020/12/18 16:17:27;;;;;;;5.00;2.70;;;;;9.90;101246.00;;;;10363308;28;20223;-78
2020/12/18 16:22:29;;;;;;;4.60;1.80;;;;;9.80;101254.00;;;;10350268;28;20218;-78
2020/12/18 16:27:31;;;;;;;3.87;2.27;;;;;9.70;101247.00;;;;10349872;28;20258;-79
2020/12/18 16:32:39;;;;;;;3.73;1.73;;;;;9.60;101241.00;;;;10352086;28;20286;-78
2020/12/18 16:37:41;;;;;;;3.77;2.03;;;;;9.50;101240.00;;;;10352248;28;20218;-79
2020/12/18 16:42:44;;;;;;;5.40;2.63;;;;;9.50;101231.00;;;;10348151;28;20769;-79
2020/12/18 16:47:45;;;;;;;4.07;2.87;;;;;9.50;101228.00;;;;10355125;28;20192;-79
2020/12/18 16:52:47;;;;;;;4.00;2.47;;;;;9.40;101207.00;;;;10349718;28;20219;-79
2020/12/18 16:57:48;;;;;;;4.67;2.60;;;;;9.40;101188.00;;;;10376924;28;20204;-79
2020/12/18 17:02:56;;;;;;;6.00;3.47;;;;;9.40;101186.00;;;;10372933;28;20272;-80
2020/12/18 17:07:57;;;;;;;5.90;3.27;;;;;9.50;101194.00;;;;10361222;28;20226;-79
2020/12/18 17:12:59;;;;;;;4.27;3.33;;;;;9.40;101191.00;;;;10368378;28;20214;-79
2020/12/18 17:18:00;;;;;;;5.43;3.40;;;;;9.30;101184.00;;;;10352709;28;20211;-79
2020/12/18 17:23:02;;;;;;;4.87;3.10;;;;;9.30;101190.00;;;;10368418;28;20196;-79
2020/12/18 17:28:03;;;;;;;5.83;3.47;;;;;9.30;101187.00;;;;10353775;28;20906;-79
2020/12/18 17:33:17;;;;;;;8.33;3.90;;;;;9.30;101179.00;;;;10368664;28;20197;-81
2020/12/18 17:38:19;;;;;;;6.20;3.43;;;;;9.30;101190.00;;;;10331994;28;20219;-80
2020/12/18 17:43:20;;;;;;;5.80;3.90;;;;;9.20;101197.00;;;;10362074;28;20223;-80
2020/12/18 17:48:21;;;;;;;5.73;4.07;;;;;9.20;101203.00;;;;10363796;28;20223;-81
2020/12/18 17:53:23;;;;;;;6.10;3.83;;;;;9.10;101185.00;;;;10353094;28;20187;-80
2020/12/18 17:58:24;;;;;;;4.40;3.97;;;;;9.00;101192.00;;;;10365260;28;20961;-81
2020/12/18 18:03:31;;;;;;;5.00;3.87;;;;;9.00;101188.00;;;;10362098;28;20219;-80
2020/12/18 18:08:34;;;;;;;5.40;3.97;;;;;9.10;101191.00;;;;10362408;28;20188;-77
2020/12/18 18:13:38;;;;;;;4.80;3.47;;;;;9.10;101210.00;;;;10326329;28;20690;-77
2020/12/18 18:18:40;;;;;;;5.00;3.87;;;;;9.10;101188.00;;;;10338545;28;20203;-79
2020/12/18 18:23:41;;;;;;;4.30;3.70;;;;;9.00;101203.00;;;;10332137;28;20191;-80
2020/12/18 18:28:42;;;;;;;6.80;4.20;;;;;9.00;101182.00;;;;10358162;28;20195;-79
2020/12/18 18:33:48;;;;;;;5.40;3.93;;;;;8.90;101177.00;;;;10329634;28;20192;-80
2020/12/18 18:38:49;;;;;;;6.80;4.50;;;;;8.80;101174.00;;;;10357054;28;20243;-80
2020/12/18 18:43:51;;;;;;;5.40;4.30;;;;;8.70;101170.00;;;;10342895;28;20293;-80
2020/12/18 18:48:52;;;;;;;8.10;4.90;;;;;8.70;101164.00;;;;10309499;28;20616;-80
2020/12/18 18:53:54;;;;;;;9.37;4.57;;;;;8.60;101157.00;;;;10365955;28;20228;-79
2020/12/18 18:58:57;;;;;;;11.97;5.37;;;;;8.60;101154.00;;;;10342026;28;20278;-78
2020/12/18 19:04:12;;;;;;;7.83;5.70;;;;;8.60;101145.00;;;;10356949;28;20190;-79
2020/12/18 19:09:13;;;;;;;10.07;5.50;;;;;8.50;101130.00;;;;10328151;28;20191;-79
2020/12/18 19:14:15;;;;;;;6.93;4.97;;;;;8.60;101125.00;;;;10356111;28;20278;-78
2020/12/18 19:19:17;;;;;;;10.20;5.07;;;;;8.60;101120.00;;;;10355179;28;20220;-79
2020/12/18 19:24:21;;;;;;;5.40;4.30;;;;;8.60;101119.00;;;;10341939;28;20658;-80
2020/12/18 19:29:24;;;;;;;8.57;5.10;;;;;8.60;101110.00;;;;10357534;28;20199;-79
2020/12/18 19:34:26;;;;;;;7.80;4.87;;;;;8.60;101107.00;;;;10324797;28;20673;-78
2020/12/18 19:39:28;;;;;;;9.00;5.90;;;;;8.50;101106.00;;;;10356395;28;20203;-78
2020/12/18 19:44:31;;;;;;;8.20;4.67;;;;;8.60;101093.00;;;;10369960;28;20224;-79
2020/12/18 19:49:32;;;;;;;9.63;5.13;;;;;8.60;101091.00;;;;10372314;28;20212;-80
2020/12/18 19:54:35;;;;;;;7.27;5.23;;;;;8.60;101084.00;;;;10344287;28;20239;-79
2020/12/18 19:59:36;;;;;;;8.73;5.37;;;;;8.50;101082.00;;;;10353927;28;20204;-78
2020/12/18 20:04:41;;;;;;;8.73;4.77;;;;;8.50;101073.00;;;;10347905;28;20247;-79
2020/12/18 20:09:43;;;;;;;8.97;5.53;;;;;8.50;101066.00;;;;10349867;28;20191;-80
2020/12/18 20:14:44;;;;;;;7.17;5.43;;;;;8.50;101060.00;;;;10322080;28;20208;-78
2020/12/18 20:19:45;;;;;;;7.10;5.00;;;;;8.50;101059.00;;;;10332735;28;20196;-79
2020/12/18 20:24:47;;;;;;;11.33;6.00;;;;;8.50;101054.00;;;;10341961;28;20192;-79
2020/12/18 20:29:51;;;;;;;8.33;4.97;;;;;8.50;101055.00;;;;10363678;28;20570;-79
2020/12/18 20:35:03;;;;;;;6.70;5.03;;;;;8.40;101045.00;;;;10354869;28;20235;-79
2020/12/18 20:40:10;;;;;;;6.93;5.80;;;;;8.40;101035.00;;;;10373609;28;20205;-79
2020/12/18 20:45:12;;;;;;;7.47;5.40;;;;;8.40;101032.00;;;;10354142;28;20230;-78
2020/12/18 20:50:15;;;;;;;9.60;6.10;;;;;8.30;101036.00;;;;10345920;28;20447;-79
2020/12/18 20:55:16;;;;;;;12.10;6.13;;;;;8.30;101041.00;;;;10361619;28;20207;-79
2020/12/18 21:00:17;;;;;;;5.90;4.87;;;;;8.20;101037.00;;;;10345671;28;20196;-80
2020/12/18 21:05:21;;;;;;;6.33;4.97;;;;;8.10;101031.00;;;;10370886;28;20272;-79
2020/12/18 21:10:25;;;;;;;8.13;5.53;;;;;8.00;101037.00;;;;10344546;28;20211;-79
2020/12/18 21:15:27;;;;;;;11.23;5.20;;;;;8.00;101042.00;;;;10299197;28;20220;-79
2020/12/18 21:20:28;;;;;;;6.33;4.63;;;;;8.00;101050.00;;;;10261641;28;20226;-78
2020/12/18 21:25:30;;;;;;;5.57;4.37;;;;;8.00;101043.00;;;;10275541;28;20856;-79
2020/12/18 21:30:51;;;;;;;6.77;4.83;;;;;8.00;101039.00;;;;10296306;28;20767;-79
2020/12/18 21:35:53;;;;;;;6.63;4.97;;;;;7.90;101028.00;;;;10265706;28;20223;-79
2020/12/18 21:40:55;;;;;;;9.40;5.70;;;;;7.90;101044.00;;;;10299416;28;20693;-79
2020/12/18 21:45:57;;;;;;;6.13;5.43;;;;;7.90;101025.00;;;;10331711;28;20219;-79
2020/12/18 21:50:59;;;;;;;8.60;6.70;;;;;7.80;101031.00;;;;10346764;28;20203;-80
2020/12/18 21:56:01;;;;;;;6.87;5.50;;;;;7.80;101031.00;;;;10348692;28;20215;-79
2020/12/18 22:01:03;;;;;;;8.10;5.40;;;;;7.80;101020.00;;;;10345333;28;20195;-79
2020/12/18 22:06:05;;;;;;;7.10;5.40;;;;;7.80;101024.00;;;;10332287;28;20234;-79
2020/12/18 22:11:08;;;;;;;6.67;5.83;;;;;7.70;101020.00;;;;10358338;28;20950;-79
2020/12/18 22:16:09;;;;;;;7.70;5.63;;;;;7.70;101019.00;;;;10380758;28;20204;-80
2020/12/18 22:21:11;;;;;;;9.03;5.60;;;;;7.70;101010.00;;;;10361354;28;20200;-78
2020/12/18 22:26:12;;;;;;;8.70;6.40;;;;;7.60;101008.00;;;;10342380;28;20199;-79
2020/12/18 22:31:22;;;;;;;9.00;6.83;;;;;7.60;101006.00;;;;10363017;28;20195;-78
2020/12/18 22:36:27;;;;;;;9.07;6.27;;;;;7.60;101009.00;;;;10361049;28;20593;-78
2020/12/18 22:41:28;;;;;;;9.73;6.33;;;;;7.50;100993.00;;;;10340204;28;20211;-80
2020/12/18 22:46:30;;;;;;;10.53;6.00;;;;;7.50;100990.00;;;;10336178;28;20262;-79
2020/12/18 22:51:34;;;;;;;8.77;6.40;;;;;7.50;100991.00;;;;10332964;28;20647;-79
2020/12/18 22:56:36;;;;;;;9.87;6.83;;;;;7.50;100988.00;;;;10323360;28;20220;-78
2020/12/18 23:01:37;;;;;;;7.63;6.20;;;;;7.40;100981.00;;;;10342520;28;20308;-79
2020/12/18 23:06:39;;;;;;;10.70;7.17;;;;;7.30;100985.00;;;;10350112;28;20214;-78
2020/12/18 23:11:40;;;;;;;10.43;5.73;;;;;7.30;100981.00;;;;10373660;28;20195;-79
2020/12/18 23:16:41;;;;;;;9.33;6.47;;;;;7.40;100989.00;;;;10337174;28;20844;-79
2020/12/18 23:21:43;;;;;;;10.07;7.03;;;;;7.40;100982.00;;;;10327186;28;20195;-79
2020/12/18 23:26:45;;;;;;;11.27;6.60;;;;;7.40;100975.00;;;;10340575;28;20198;-81
2020/12/18 23:31:51;;;;;;;9.80;7.00;;;;;7.40;100987.00;;;;10358658;28;20709;-79
2020/12/18 23:36:54;;;;;;;11.73;7.93;;;;;7.40;100968.00;;;;10331705;28;20222;-79
2020/12/18 23:41:57;;;;;;;11.57;7.23;;;;;7.30;100961.00;;;;10318931;28;20192;-79
2020/12/18 23:46:58;;;;;;;11.73;7.50;;;;;7.30;100956.00;;;;10358594;28;20200;-79
2020/12/18 23:52:00;;;;;;;11.23;7.60;;;;;7.20;100948.00;;;;10339367;28;20203;-79
2020/12/18 23:57:03;;;;;;;8.80;7.70;;;;;7.30;100955.00;;;;10363907;28;20770;-79
